Weather History for Erie, CO

Change the Weather History Date:

Thursday, September 26, 2013

  Actual Average (KBJC) Record (KBJC)
Temperature  
Mean Temperature 56 °F -  
Max Temperature 67 °F 69 °F 89 °F (2001)
Min Temperature 45 °F 46 °F 29 °F (1985)
Degree Days  
Heating Degree Days 9    
Growing Degree Days 6 (Base 50)    
Moisture  
Dew Point 44 °F    
Average Humidity 67    
Maximum Humidity 90    
Minimum Humidity 42    
Precipitation  
Precipitation 0.00 in - - ()
Sea Level Pressure  
Sea Level Pressure 29.76 in    
Wind  
Wind Speed 4 mph (East)    
Max Wind Speed 8 mph    
Max Gust Speed -    
Visibility 10 miles    
Events      
Averages and records for this station are not official NWS values.
T = Trace of Precipitation, MM = Missing Value Source: NWS Daily Summary

Daily Weather History Graph

Daily Weather History Graph

Search for Another Location

Airport:

Trip Planner

Search our weather history database for the weather conditions in past years. The results will help you decide how hot, cold, wet, or windy it might be!

Date:

Astronomy

Sep. 26, 2013 Rise Set
Actual Time 6:51 AM MDT 6:50 PM MDT
Civil Twilight 6:24 AM MDT 7:17 PM MDT
Nautical Twilight 5:53 AM MDT 7:48 PM MDT
Astronomical Twilight 5:21 AM MDT 8:20 PM MDT
Moon 11:50 PM MDT (9/26) 1:45 PM MDT (9/26)
Length of Visible Light 12h 52m
Length of Day
11h 58m
Waning Gibbous, 54% of the Moon is Illuminated
Sep 26
Waning Gibbous
Sep 26
Last Quarter
Oct 4
New
Oct 11
First Quarter
Oct 18
Full

Hourly Weather History & Observations

Time (MDT) Temp. Windchill Dew Point Humidity Pressure Visibility Wind Dir Wind Speed Gust Speed Precip Events Conditions
12:14 AM 51.6 °F - 48.7 °F 90% 29.60 in 10.0 mi North 5.8 mph - N/A   Clear
12:34 AM 51.3 °F - 47.7 °F 87% 29.61 in 10.0 mi North 5.8 mph - N/A   Clear
12:54 AM 54.9 °F - 46.6 °F 74% 29.62 in 10.0 mi North 3.5 mph - N/A   Clear
1:14 AM 53.6 °F - 44.2 °F 71% 29.63 in 10.0 mi North 6.9 mph - N/A   Clear
1:34 AM 52.0 °F - 43.9 °F 74% 29.65 in 10.0 mi Calm Calm - N/A   Clear
1:54 AM 51.8 °F - 43.0 °F 72% 29.66 in 10.0 mi North 4.6 mph - N/A   Clear
2:14 AM 51.1 °F - 42.8 °F 73% 29.67 in 10.0 mi ENE 4.6 mph - N/A   Clear
2:34 AM 51.3 °F - 42.4 °F 72% 29.68 in 10.0 mi East 5.8 mph - N/A   Clear
2:54 AM 49.3 °F - 43.0 °F 79% 29.69 in 10.0 mi East 3.5 mph - N/A   Clear
3:14 AM 50.2 °F - 42.8 °F 76% 29.70 in 10.0 mi Calm Calm - N/A   Clear
3:34 AM 50.0 °F - 43.2 °F 77% 29.72 in 10.0 mi Calm Calm - N/A   Clear
3:54 AM 48.2 °F - 43.5 °F 84% 29.72 in 10.0 mi Calm Calm - N/A   Clear
4:14 AM 47.3 °F - 43.3 °F 86% 29.73 in 10.0 mi SSW 3.5 mph - N/A   Clear
4:34 AM 45.7 °F 44.4 °F 42.6 °F 89% 29.73 in 10.0 mi ESE 3.5 mph - N/A   Clear
4:54 AM 46.6 °F - 42.6 °F 86% 29.75 in 10.0 mi SSE 3.5 mph - N/A   Clear
5:14 AM 46.6 °F - 42.3 °F 85% 29.76 in 10.0 mi SSE 4.6 mph - N/A   Clear
5:34 AM 47.3 °F - 41.9 °F 82% 29.77 in 10.0 mi SSE 5.8 mph - N/A   Clear
5:54 AM 46.9 °F - 41.5 °F 81% 29.78 in 10.0 mi SSE 3.5 mph - N/A   Clear
6:14 AM 46.8 °F - 41.4 °F 81% 29.78 in 10.0 mi SSE 3.5 mph - N/A   Clear
6:34 AM 46.6 °F - 41.0 °F 81% 29.79 in 10.0 mi Calm Calm - N/A   Clear
6:54 AM 46.4 °F 45.2 °F 41.0 °F 81% 29.80 in 10.0 mi South 3.5 mph - N/A   Clear
7:14 AM 46.0 °F - 41.0 °F 83% 29.81 in 10.0 mi Calm Calm - N/A   Clear
7:34 AM 46.6 °F - 42.4 °F 85% 29.82 in 10.0 mi Calm Calm - N/A   Clear
7:54 AM 49.8 °F - 42.8 °F 77% 29.82 in 10.0 mi South 4.6 mph - N/A   Clear
8:14 AM 51.8 °F - 42.8 °F 71% 29.82 in 10.0 mi South 3.5 mph - N/A   Clear
8:34 AM 53.1 °F - 42.6 °F 68% 29.83 in 10.0 mi South 4.6 mph - N/A   Clear
8:54 AM 54.5 °F - 40.8 °F 60% 29.83 in 10.0 mi SSE 3.5 mph - N/A   Clear
9:14 AM 55.4 °F - 41.9 °F 60% 29.83 in 10.0 mi South 4.6 mph - N/A   Clear
9:34 AM 56.3 °F - 41.5 °F 58% 29.83 in 10.0 mi SSE 5.8 mph - N/A   Clear
9:54 AM 57.2 °F - 40.8 °F 54% 29.83 in 10.0 mi SSE 4.6 mph - N/A   Clear
10:14 AM 58.3 °F - 39.7 °F 50% 29.83 in 10.0 mi Calm Calm - N/A   Clear
10:34 AM 59.0 °F - 40.5 °F 50% 29.83 in 10.0 mi ESE 5.8 mph - N/A   Clear
10:54 AM 59.2 °F - 40.8 °F 51% 29.82 in 10.0 mi ENE 4.6 mph - N/A   Clear
11:14 AM 59.5 °F - 41.5 °F 51% 29.82 in 10.0 mi NNE 4.6 mph - N/A   Clear
11:34 AM 60.1 °F - 41.4 °F 50% 29.81 in 10.0 mi East 5.8 mph - N/A   Clear
11:54 AM 60.4 °F - 42.4 °F 51% 29.81 in 10.0 mi Calm Calm - N/A   Clear
12:14 PM 61.2 °F - 43.5 °F 52% 29.81 in 10.0 mi East 8.1 mph - N/A   Clear
12:34 PM 61.7 °F - 43.3 °F 51% 29.81 in 10.0 mi ESE 4.6 mph - N/A   Clear
12:54 PM 62.4 °F - 43.7 °F 50% 29.79 in 10.0 mi NNE 4.6 mph - N/A   Clear
1:14 PM 62.8 °F - 43.5 °F 49% 29.79 in 10.0 mi East 3.5 mph - N/A   Clear
1:34 PM 63.5 °F - 44.1 °F 49% 29.78 in 10.0 mi East 3.5 mph - N/A   Clear
1:54 PM 64.4 °F - 43.2 °F 46% 29.77 in 10.0 mi ESE 4.6 mph - N/A   Clear
2:14 PM 64.2 °F - 43.2 °F 46% 29.77 in 10.0 mi ESE 5.8 mph - N/A   Clear
2:34 PM 65.1 °F - 43.7 °F 46% 29.77 in 10.0 mi Calm Calm - N/A   Clear
2:54 PM 66.0 °F - 45.7 °F 48% 29.77 in 10.0 mi East 3.5 mph - N/A   Clear
3:14 PM 66.6 °F - 45.5 °F 47% 29.76 in 10.0 mi NNE 8.1 mph - N/A   Clear
3:34 PM 66.6 °F - 45.1 °F 46% 29.75 in 10.0 mi East 3.5 mph - N/A   Clear
3:54 PM 66.6 °F - 44.6 °F 45% 29.75 in 10.0 mi ENE 3.5 mph - N/A   Clear
4:14 PM 67.5 °F - 44.4 °F 43% 29.75 in 10.0 mi SSE 3.5 mph - N/A   Clear
4:34 PM 67.1 °F - 43.9 °F 43% 29.75 in 10.0 mi Calm Calm - N/A   Clear
4:54 PM 67.3 °F - 43.5 °F 42% 29.75 in 10.0 mi Calm Calm - N/A   Clear
5:14 PM 67.1 °F - 46.2 °F 47% 29.75 in 10.0 mi NNW 3.5 mph - N/A   Clear
5:34 PM 66.6 °F - 46.0 °F 48% 29.75 in 10.0 mi NW 5.8 mph - N/A   Clear
5:54 PM 64.9 °F - 46.8 °F 52% 29.75 in 10.0 mi NNW 6.9 mph - N/A   Clear
6:14 PM 63.5 °F - 47.1 °F 55% 29.75 in 10.0 mi NNW 5.8 mph - N/A   Clear
6:34 PM 61.2 °F - 47.3 °F 60% 29.75 in 10.0 mi NNW 5.8 mph - N/A   Clear
6:54 PM 60.3 °F - 46.9 °F 61% 29.75 in 10.0 mi NNW 4.6 mph - N/A   Clear
7:14 PM 59.4 °F - 47.3 °F 64% 29.75 in 10.0 mi NW 4.6 mph - N/A   Clear
7:34 PM 57.7 °F - 48.7 °F 72% 29.75 in 10.0 mi WNW 4.6 mph - N/A   Clear
7:54 PM 56.5 °F - 48.2 °F 74% 29.75 in 10.0 mi NW 3.5 mph - N/A   Clear
8:14 PM 55.6 °F - 49.6 °F 80% 29.76 in 10.0 mi West 4.6 mph - N/A   Clear
8:34 PM 55.9 °F - 48.6 °F 76% 29.76 in 10.0 mi Calm Calm - N/A   Clear
8:54 PM 56.3 °F - 48.6 °F 75% 29.76 in 10.0 mi Calm Calm - N/A   Clear
9:14 PM 55.8 °F - 48.2 °F 76% 29.76 in 10.0 mi Calm Calm - N/A   Clear
9:34 PM 54.9 °F - 48.2 °F 78% 29.76 in 10.0 mi Calm Calm - N/A   Clear
9:54 PM 54.1 °F - 48.6 °F 81% 29.76 in 10.0 mi Calm Calm - N/A   Clear
10:14 PM 53.1 °F - 48.4 °F 84% 29.76 in 10.0 mi Calm Calm - N/A   Clear
10:34 PM 52.7 °F - 48.4 °F 85% 29.76 in 10.0 mi Calm Calm - N/A   Clear
10:54 PM 52.7 °F - 48.2 °F 85% 29.76 in 10.0 mi Calm Calm - N/A   Clear
11:14 PM 52.0 °F - 47.7 °F 85% 29.76 in 10.0 mi Calm Calm - N/A   Clear
11:34 PM 51.6 °F - 47.7 °F 86% 29.76 in 10.0 mi Calm Calm - N/A   Clear
11:54 PM 50.9 °F - 47.7 °F 89% 29.76 in 10.0 mi Calm Calm - N/A   Clear